sensor_id;sensor_type;location;lat;lon;timestamp;temperature;humidity
12089;DHT22;6107;49.078;8.578;2022-07-23T00:00:03;23.00;94.10
12089;DHT22;6107;49.078;8.578;2022-07-23T00:02:29;22.90;94.20
12089;DHT22;6107;49.078;8.578;2022-07-23T00:04:55;23.30;93.20
12089;DHT22;6107;49.078;8.578;2022-07-23T00:07:20;23.60;92.70
12089;DHT22;6107;49.078;8.578;2022-07-23T00:09:46;23.80;92.00
12089;DHT22;6107;49.078;8.578;2022-07-23T00:12:11;24.20;91.00
12089;DHT22;6107;49.078;8.578;2022-07-23T00:14:37;24.30;90.50
12089;DHT22;6107;49.078;8.578;2022-07-23T00:17:02;24.40;89.80
12089;DHT22;6107;49.078;8.578;2022-07-23T00:19:28;24.50;88.70
12089;DHT22;6107;49.078;8.578;2022-07-23T00:21:54;24.60;87.60
12089;DHT22;6107;49.078;8.578;2022-07-23T00:24:20;24.60;86.30
12089;DHT22;6107;49.078;8.578;2022-07-23T00:26:45;24.60;85.70
12089;DHT22;6107;49.078;8.578;2022-07-23T00:29:11;24.60;85.20
12089;DHT22;6107;49.078;8.578;2022-07-23T00:31:37;24.60;85.00
12089;DHT22;6107;49.078;8.578;2022-07-23T00:34:02;24.60;84.90
12089;DHT22;6107;49.078;8.578;2022-07-23T00:36:28;24.60;85.10
12089;DHT22;6107;49.078;8.578;2022-07-23T00:38:54;24.50;85.40
12089;DHT22;6107;49.078;8.578;2022-07-23T00:41:19;24.50;85.70
12089;DHT22;6107;49.078;8.578;2022-07-23T00:43:45;24.50;85.50
12089;DHT22;6107;49.078;8.578;2022-07-23T00:46:10;24.50;85.60
12089;DHT22;6107;49.078;8.578;2022-07-23T00:48:36;24.50;85.80
12089;DHT22;6107;49.078;8.578;2022-07-23T00:51:02;24.40;85.70
12089;DHT22;6107;49.078;8.578;2022-07-23T00:53:28;24.40;85.50
12089;DHT22;6107;49.078;8.578;2022-07-23T00:55:54;24.40;85.50
12089;DHT22;6107;49.078;8.578;2022-07-23T00:58:20;24.40;85.90
12089;DHT22;6107;49.078;8.578;2022-07-23T01:00:46;24.30;85.60
12089;DHT22;6107;49.078;8.578;2022-07-23T01:03:11;24.30;85.50
12089;DHT22;6107;49.078;8.578;2022-07-23T01:05:37;24.30;86.20
12089;DHT22;6107;49.078;8.578;2022-07-23T01:08:03;24.20;86.10
12089;DHT22;6107;49.078;8.578;2022-07-23T01:10:29;24.10;86.00
12089;DHT22;6107;49.078;8.578;2022-07-23T01:13:08;24.10;85.80
12089;DHT22;6107;49.078;8.578;2022-07-23T01:15:36;24.10;86.00
12089;DHT22;6107;49.078;8.578;2022-07-23T01:18:03;24.00;86.00
12089;DHT22;6107;49.078;8.578;2022-07-23T01:20:30;24.00;86.50
12089;DHT22;6107;49.078;8.578;2022-07-23T01:22:56;24.00;86.50
12089;DHT22;6107;49.078;8.578;2022-07-23T01:25:22;24.00;85.80
12089;DHT22;6107;49.078;8.578;2022-07-23T01:27:48;23.90;86.00
12089;DHT22;6107;49.078;8.578;2022-07-23T01:30:13;23.90;86.70
12089;DHT22;6107;49.078;8.578;2022-07-23T01:32:39;23.80;87.00
12089;DHT22;6107;49.078;8.578;2022-07-23T01:35:05;23.80;87.40
12089;DHT22;6107;49.078;8.578;2022-07-23T01:37:31;23.80;88.30
12089;DHT22;6107;49.078;8.578;2022-07-23T01:39:57;23.70;89.00
12089;DHT22;6107;49.078;8.578;2022-07-23T01:42:22;23.70;89.50
12089;DHT22;6107;49.078;8.578;2022-07-23T01:44:48;23.50;89.80
12089;DHT22;6107;49.078;8.578;2022-07-23T01:47:15;23.50;90.00
12089;DHT22;6107;49.078;8.578;2022-07-23T01:49:40;23.20;90.30
12089;DHT22;6107;49.078;8.578;2022-07-23T01:52:06;23.10;90.20
12089;DHT22;6107;49.078;8.578;2022-07-23T01:54:36;23.00;90.30
12089;DHT22;6107;49.078;8.578;2022-07-23T01:57:02;22.90;90.60
12089;DHT22;6107;49.078;8.578;2022-07-23T01:59:28;22.90;90.80
12089;DHT22;6107;49.078;8.578;2022-07-23T02:01:54;22.70;91.30
12089;DHT22;6107;49.078;8.578;2022-07-23T02:04:21;22.60;90.90
12089;DHT22;6107;49.078;8.578;2022-07-23T02:06:47;22.50;91.30
12089;DHT22;6107;49.078;8.578;2022-07-23T02:09:13;22.60;91.00
12089;DHT22;6107;49.078;8.578;2022-07-23T02:11:39;22.50;91.40
12089;DHT22;6107;49.078;8.578;2022-07-23T02:14:05;22.50;91.50
12089;DHT22;6107;49.078;8.578;2022-07-23T02:16:30;22.60;91.30
12089;DHT22;6107;49.078;8.578;2022-07-23T02:18:56;22.70;91.20
12089;DHT22;6107;49.078;8.578;2022-07-23T02:21:21;22.40;91.70
12089;DHT22;6107;49.078;8.578;2022-07-23T02:23:47;22.00;92.40
12089;DHT22;6107;49.078;8.578;2022-07-23T02:26:12;21.70;99.30
12089;DHT22;6107;49.078;8.578;2022-07-23T02:28:38;21.60;99.90
12089;DHT22;6107;49.078;8.578;2022-07-23T02:31:04;21.50;99.90
12089;DHT22;6107;49.078;8.578;2022-07-23T02:33:29;21.50;99.80
12089;DHT22;6107;49.078;8.578;2022-07-23T02:35:55;21.50;99.20
12089;DHT22;6107;49.078;8.578;2022-07-23T02:38:21;21.30;99.90
12089;DHT22;6107;49.078;8.578;2022-07-23T02:40:46;21.30;99.90
12089;DHT22;6107;49.078;8.578;2022-07-23T02:43:12;21.50;99.90
12089;DHT22;6107;49.078;8.578;2022-07-23T02:45:37;21.60;99.90
12089;DHT22;6107;49.078;8.578;2022-07-23T02:48:03;21.10;99.90
12089;DHT22;6107;49.078;8.578;2022-07-23T02:50:29;21.00;99.90
12089;DHT22;6107;49.078;8.578;2022-07-23T02:52:54;20.90;99.90
12089;DHT22;6107;49.078;8.578;2022-07-23T02:55:20;21.00;99.90
12089;DHT22;6107;49.078;8.578;2022-07-23T02:57:45;21.30;99.90
12089;DHT22;6107;49.078;8.578;2022-07-23T03:00:11;21.10;99.90
12089;DHT22;6107;49.078;8.578;2022-07-23T03:02:37;21.20;99.90
12089;DHT22;6107;49.078;8.578;2022-07-23T03:05:03;21.20;99.90
12089;DHT22;6107;49.078;8.578;2022-07-23T03:07:30;21.10;99.90
12089;DHT22;6107;49.078;8.578;2022-07-23T03:09:56;21.20;99.90
12089;DHT22;6107;49.078;8.578;2022-07-23T03:12:21;21.50;99.90
12089;DHT22;6107;49.078;8.578;2022-07-23T03:14:47;21.40;99.90
12089;DHT22;6107;49.078;8.578;2022-07-23T03:17:12;20.90;99.90
12089;DHT22;6107;49.078;8.578;2022-07-23T03:19:38;20.70;99.90
12089;DHT22;6107;49.078;8.578;2022-07-23T03:22:04;20.80;99.90
12089;DHT22;6107;49.078;8.578;2022-07-23T03:24:30;20.80;99.90
12089;DHT22;6107;49.078;8.578;2022-07-23T03:27:14;21.00;99.90
12089;DHT22;6107;49.078;8.578;2022-07-23T03:29:40;20.80;99.90
12089;DHT22;6107;49.078;8.578;2022-07-23T03:32:06;20.90;99.90
12089;DHT22;6107;49.078;8.578;2022-07-23T03:34:32;20.90;99.90
12089;DHT22;6107;49.078;8.578;2022-07-23T03:36:57;21.00;99.90
12089;DHT22;6107;49.078;8.578;2022-07-23T03:39:23;21.20;99.90
12089;DHT22;6107;49.078;8.578;2022-07-23T03:41:48;21.30;99.90
12089;DHT22;6107;49.078;8.578;2022-07-23T03:44:14;21.20;99.90
12089;DHT22;6107;49.078;8.578;2022-07-23T03:46:39;20.70;99.90
12089;DHT22;6107;49.078;8.578;2022-07-23T03:49:05;20.60;99.90
12089;DHT22;6107;49.078;8.578;2022-07-23T03:51:30;20.50;99.90
12089;DHT22;6107;49.078;8.578;2022-07-23T03:53:56;20.70;99.90
12089;DHT22;6107;49.078;8.578;2022-07-23T03:56:21;20.80;99.90
12089;DHT22;6107;49.078;8.578;2022-07-23T03:58:47;20.90;99.90
12089;DHT22;6107;49.078;8.578;2022-07-23T04:01:13;21.00;99.90
12089;DHT22;6107;49.078;8.578;2022-07-23T04:03:38;21.10;99.90
12089;DHT22;6107;49.078;8.578;2022-07-23T04:06:05;20.90;99.90
12089;DHT22;6107;49.078;8.578;2022-07-23T04:08:31;20.50;99.90
12089;DHT22;6107;49.078;8.578;2022-07-23T04:10:56;20.60;99.90
12089;DHT22;6107;49.078;8.578;2022-07-23T04:13:22;20.80;99.90
12089;DHT22;6107;49.078;8.578;2022-07-23T04:15:47;20.50;99.90
12089;DHT22;6107;49.078;8.578;2022-07-23T04:18:13;20.20;99.90
12089;DHT22;6107;49.078;8.578;2022-07-23T04:20:38;20.30;99.90
12089;DHT22;6107;49.078;8.578;2022-07-23T04:23:04;20.60;99.90
12089;DHT22;6107;49.078;8.578;2022-07-23T04:25:30;20.70;99.90
12089;DHT22;6107;49.078;8.578;2022-07-23T04:27:55;20.80;99.90
12089;DHT22;6107;49.078;8.578;2022-07-23T04:30:21;21.00;99.90
12089;DHT22;6107;49.078;8.578;2022-07-23T04:32:46;21.00;99.90
12089;DHT22;6107;49.078;8.578;2022-07-23T04:35:12;21.00;99.90
12089;DHT22;6107;49.078;8.578;2022-07-23T04:37:37;21.10;99.90
12089;DHT22;6107;49.078;8.578;2022-07-23T04:40:03;21.30;99.90
12089;DHT22;6107;49.078;8.578;2022-07-23T04:42:29;21.40;99.90
12089;DHT22;6107;49.078;8.578;2022-07-23T04:44:54;21.30;99.90
12089;DHT22;6107;49.078;8.578;2022-07-23T04:47:20;20.90;99.90
12089;DHT22;6107;49.078;8.578;2022-07-23T04:49:45;20.80;99.90
12089;DHT22;6107;49.078;8.578;2022-07-23T04:52:11;20.70;99.90
12089;DHT22;6107;49.078;8.578;2022-07-23T04:54:37;20.60;99.90
12089;DHT22;6107;49.078;8.578;2022-07-23T04:57:02;20.60;99.90
12089;DHT22;6107;49.078;8.578;2022-07-23T04:59:28;20.70;99.90
12089;DHT22;6107;49.078;8.578;2022-07-23T05:01:53;20.80;99.90
12089;DHT22;6107;49.078;8.578;2022-07-23T05:04:19;21.00;99.90
12089;DHT22;6107;49.078;8.578;2022-07-23T05:06:44;21.10;99.90
12089;DHT22;6107;49.078;8.578;2022-07-23T05:09:10;21.10;99.90
12089;DHT22;6107;49.078;8.578;2022-07-23T05:11:36;21.00;99.90
12089;DHT22;6107;49.078;8.578;2022-07-23T05:14:01;20.90;99.90
12089;DHT22;6107;49.078;8.578;2022-07-23T05:16:27;21.00;99.90
12089;DHT22;6107;49.078;8.578;2022-07-23T05:18:52;21.10;99.90
12089;DHT22;6107;49.078;8.578;2022-07-23T05:21:19;21.20;99.90
12089;DHT22;6107;49.078;8.578;2022-07-23T05:23:44;21.10;99.90
12089;DHT22;6107;49.078;8.578;2022-07-23T05:26:10;21.10;99.90
12089;DHT22;6107;49.078;8.578;2022-07-23T05:28:35;21.10;99.90
12089;DHT22;6107;49.078;8.578;2022-07-23T05:31:01;21.10;99.90
12089;DHT22;6107;49.078;8.578;2022-07-23T05:33:27;21.10;99.90
12089;DHT22;6107;49.078;8.578;2022-07-23T05:35:53;21.10;99.90
12089;DHT22;6107;49.078;8.578;2022-07-23T05:38:19;20.90;99.90
12089;DHT22;6107;49.078;8.578;2022-07-23T05:40:44;20.60;99.90
12089;DHT22;6107;49.078;8.578;2022-07-23T05:43:10;20.80;99.90
12089;DHT22;6107;49.078;8.578;2022-07-23T05:45:35;20.90;99.90
12089;DHT22;6107;49.078;8.578;2022-07-23T05:48:01;21.10;99.90
12089;DHT22;6107;49.078;8.578;2022-07-23T05:50:26;21.00;99.90
12089;DHT22;6107;49.078;8.578;2022-07-23T05:52:52;20.80;99.90
12089;DHT22;6107;49.078;8.578;2022-07-23T05:55:17;20.90;99.90
12089;DHT22;6107;49.078;8.578;2022-07-23T05:57:43;21.70;99.90
12089;DHT22;6107;49.078;8.578;2022-07-23T06:00:09;22.00;99.90
12089;DHT22;6107;49.078;8.578;2022-07-23T06:02:37;21.50;99.90
12089;DHT22;6107;49.078;8.578;2022-07-23T06:05:03;21.40;99.90
12089;DHT22;6107;49.078;8.578;2022-07-23T06:07:28;21.60;99.90
12089;DHT22;6107;49.078;8.578;2022-07-23T06:09:54;22.50;99.90
12089;DHT22;6107;49.078;8.578;2022-07-23T06:12:19;22.70;99.90
12089;DHT22;6107;49.078;8.578;2022-07-23T06:14:47;22.70;99.90
12089;DHT22;6107;49.078;8.578;2022-07-23T06:17:15;22.50;99.90
12089;DHT22;6107;49.078;8.578;2022-07-23T06:19:45;21.60;99.90
12089;DHT22;6107;49.078;8.578;2022-07-23T06:22:11;21.10;99.90
12089;DHT22;6107;49.078;8.578;2022-07-23T06:24:37;21.60;99.90
12089;DHT22;6107;49.078;8.578;2022-07-23T06:27:02;21.70;99.90
12089;DHT22;6107;49.078;8.578;2022-07-23T06:29:28;20.90;99.90
12089;DHT22;6107;49.078;8.578;2022-07-23T06:31:54;21.00;99.90
12089;DHT22;6107;49.078;8.578;2022-07-23T06:34:19;20.60;99.90
12089;DHT22;6107;49.078;8.578;2022-07-23T06:36:45;20.60;99.90
12089;DHT22;6107;49.078;8.578;2022-07-23T06:39:10;21.00;99.90
12089;DHT22;6107;49.078;8.578;2022-07-23T06:41:36;21.20;99.90
12089;DHT22;6107;49.078;8.578;2022-07-23T06:44:02;22.10;99.90
12089;DHT22;6107;49.078;8.578;2022-07-23T06:46:27;22.30;99.90
12089;DHT22;6107;49.078;8.578;2022-07-23T06:48:53;22.50;99.90
12089;DHT22;6107;49.078;8.578;2022-07-23T06:51:18;22.40;99.90
12089;DHT22;6107;49.078;8.578;2022-07-23T06:53:44;21.80;99.90
12089;DHT22;6107;49.078;8.578;2022-07-23T06:56:10;21.70;99.90
12089;DHT22;6107;49.078;8.578;2022-07-23T06:58:36;22.20;99.90
12089;DHT22;6107;49.078;8.578;2022-07-23T07:01:01;22.10;99.90
12089;DHT22;6107;49.078;8.578;2022-07-23T07:03:27;21.60;99.90
12089;DHT22;6107;49.078;8.578;2022-07-23T07:05:53;21.10;99.90
12089;DHT22;6107;49.078;8.578;2022-07-23T07:08:19;20.90;99.90
12089;DHT22;6107;49.078;8.578;2022-07-23T07:10:44;20.80;99.90
12089;DHT22;6107;49.078;8.578;2022-07-23T07:13:10;21.10;99.90
12089;DHT22;6107;49.078;8.578;2022-07-23T07:15:35;21.50;99.90
12089;DHT22;6107;49.078;8.578;2022-07-23T07:18:01;21.70;99.90
12089;DHT22;6107;49.078;8.578;2022-07-23T07:20:27;22.00;99.90
12089;DHT22;6107;49.078;8.578;2022-07-23T07:22:52;22.10;99.90
12089;DHT22;6107;49.078;8.578;2022-07-23T07:25:18;22.20;99.90
12089;DHT22;6107;49.078;8.578;2022-07-23T07:27:43;22.30;99.90
12089;DHT22;6107;49.078;8.578;2022-07-23T07:30:10;22.30;99.90
12089;DHT22;6107;49.078;8.578;2022-07-23T07:32:36;22.40;99.90
12089;DHT22;6107;49.078;8.578;2022-07-23T07:35:03;22.40;99.90
12089;DHT22;6107;49.078;8.578;2022-07-23T07:37:29;22.40;99.90
12089;DHT22;6107;49.078;8.578;2022-07-23T07:39:56;22.40;99.90
12089;DHT22;6107;49.078;8.578;2022-07-23T07:42:21;22.50;99.90
12089;DHT22;6107;49.078;8.578;2022-07-23T07:44:47;22.30;99.90
12089;DHT22;6107;49.078;8.578;2022-07-23T07:47:12;22.40;99.90
12089;DHT22;6107;49.078;8.578;2022-07-23T07:49:41;22.20;99.90
12089;DHT22;6107;49.078;8.578;2022-07-23T07:52:06;22.30;99.90
12089;DHT22;6107;49.078;8.578;2022-07-23T07:54:32;22.50;99.90
12089;DHT22;6107;49.078;8.578;2022-07-23T07:56:57;22.50;99.90
12089;DHT22;6107;49.078;8.578;2022-07-23T07:59:23;22.60;99.90
12089;DHT22;6107;49.078;8.578;2022-07-23T08:01:48;22.90;99.90
12089;DHT22;6107;49.078;8.578;2022-07-23T08:04:14;22.70;99.90
12089;DHT22;6107;49.078;8.578;2022-07-23T08:06:39;22.70;99.90
12089;DHT22;6107;49.078;8.578;2022-07-23T08:09:05;23.20;99.90
12089;DHT22;6107;49.078;8.578;2022-07-23T08:11:31;23.70;99.70
12089;DHT22;6107;49.078;8.578;2022-07-23T08:13:56;24.00;99.20
12089;DHT22;6107;49.078;8.578;2022-07-23T08:16:22;24.30;98.70
12089;DHT22;6107;49.078;8.578;2022-07-23T08:18:47;24.50;97.40
12089;DHT22;6107;49.078;8.578;2022-07-23T08:21:13;24.10;97.40
12089;DHT22;6107;49.078;8.578;2022-07-23T08:23:38;24.20;98.40
12089;DHT22;6107;49.078;8.578;2022-07-23T08:26:04;24.20;98.20
12089;DHT22;6107;49.078;8.578;2022-07-23T08:28:30;23.90;99.00
12089;DHT22;6107;49.078;8.578;2022-07-23T08:30:59;23.90;97.80
12089;DHT22;6107;49.078;8.578;2022-07-23T08:33:25;23.90;98.60
12089;DHT22;6107;49.078;8.578;2022-07-23T08:35:51;24.00;97.90
12089;DHT22;6107;49.078;8.578;2022-07-23T08:38:20;24.00;97.40
12089;DHT22;6107;49.078;8.578;2022-07-23T08:40:51;24.00;97.60
12089;DHT22;6107;49.078;8.578;2022-07-23T08:43:19;24.50;97.60
12089;DHT22;6107;49.078;8.578;2022-07-23T08:45:47;24.80;97.60
12089;DHT22;6107;49.078;8.578;2022-07-23T08:48:23;24.50;94.80
12089;DHT22;6107;49.078;8.578;2022-07-23T08:50:51;24.30;95.50
12089;DHT22;6107;49.078;8.578;2022-07-23T08:53:18;24.30;95.90
12089;DHT22;6107;49.078;8.578;2022-07-23T08:55:45;24.60;95.10
12089;DHT22;6107;49.078;8.578;2022-07-23T08:58:11;24.80;93.10
12089;DHT22;6107;49.078;8.578;2022-07-23T09:00:37;24.90;93.20
12089;DHT22;6107;49.078;8.578;2022-07-23T09:03:03;24.80;94.20
12089;DHT22;6107;49.078;8.578;2022-07-23T09:05:29;25.00;94.00
12089;DHT22;6107;49.078;8.578;2022-07-23T09:08:04;25.00;91.70
12089;DHT22;6107;49.078;8.578;2022-07-23T09:13:38;25.70;92.30
12089;DHT22;6107;49.078;8.578;2022-07-23T09:16:13;26.20;93.50
12089;DHT22;6107;49.078;8.578;2022-07-23T09:18:52;26.40;91.80
12089;DHT22;6107;49.078;8.578;2022-07-23T09:21:38;25.90;90.40
12089;DHT22;6107;49.078;8.578;2022-07-23T09:24:05;25.50;89.50
12089;DHT22;6107;49.078;8.578;2022-07-23T09:26:35;25.50;90.60
12089;DHT22;6107;49.078;8.578;2022-07-23T09:31:50;26.30;90.70
12089;DHT22;6107;49.078;8.578;2022-07-23T09:36:49;26.30;90.60
12089;DHT22;6107;49.078;8.578;2022-07-23T09:39:22;26.50;90.70
12089;DHT22;6107;49.078;8.578;2022-07-23T09:41:49;26.60;89.00
12089;DHT22;6107;49.078;8.578;2022-07-23T09:44:18;26.50;90.40
12089;DHT22;6107;49.078;8.578;2022-07-23T09:46:45;26.50;88.60
12089;DHT22;6107;49.078;8.578;2022-07-23T09:49:22;26.50;88.60
12089;DHT22;6107;49.078;8.578;2022-07-23T09:54:21;26.30;90.40
12089;DHT22;6107;49.078;8.578;2022-07-23T09:56:48;26.50;89.40
12089;DHT22;6107;49.078;8.578;2022-07-23T09:59:16;26.20;85.30
12089;DHT22;6107;49.078;8.578;2022-07-23T10:01:44;26.20;86.80
12089;DHT22;6107;49.078;8.578;2022-07-23T10:04:11;26.50;87.80
12089;DHT22;6107;49.078;8.578;2022-07-23T10:06:39;26.30;85.80
12089;DHT22;6107;49.078;8.578;2022-07-23T10:09:07;26.20;85.60
12089;DHT22;6107;49.078;8.578;2022-07-23T10:11:34;26.80;88.70
12089;DHT22;6107;49.078;8.578;2022-07-23T10:14:00;27.60;99.90
12089;DHT22;6107;49.078;8.578;2022-07-23T10:16:28;28.20;99.90
12089;DHT22;6107;49.078;8.578;2022-07-23T10:18:55;28.30;99.90
12089;DHT22;6107;49.078;8.578;2022-07-23T10:21:34;28.10;99.90
12089;DHT22;6107;49.078;8.578;2022-07-23T10:29:58;28.70;99.70
12089;DHT22;6107;49.078;8.578;2022-07-23T10:32:40;28.80;98.10
12089;DHT22;6107;49.078;8.578;2022-07-23T10:37:47;28.90;98.40
12089;DHT22;6107;49.078;8.578;2022-07-23T10:40:21;29.00;97.00
12089;DHT22;6107;49.078;8.578;2022-07-23T10:42:50;28.60;94.90
12089;DHT22;6107;49.078;8.578;2022-07-23T10:45:35;28.80;95.20
12089;DHT22;6107;49.078;8.578;2022-07-23T10:48:24;28.80;93.60
12089;DHT22;6107;49.078;8.578;2022-07-23T10:51:11;29.10;94.40
12089;DHT22;6107;49.078;8.578;2022-07-23T10:56:17;29.30;90.40
12089;DHT22;6107;49.078;8.578;2022-07-23T10:59:05;29.30;90.20
12089;DHT22;6107;49.078;8.578;2022-07-23T11:01:36;29.30;89.30
12089;DHT22;6107;49.078;8.578;2022-07-23T11:04:03;29.60;88.80
12089;DHT22;6107;49.078;8.578;2022-07-23T11:09:43;29.80;87.60
12089;DHT22;6107;49.078;8.578;2022-07-23T11:15:01;29.50;85.40
12089;DHT22;6107;49.078;8.578;2022-07-23T11:17:27;29.50;83.70
12089;DHT22;6107;49.078;8.578;2022-07-23T11:22:39;30.00;83.20
12089;DHT22;6107;49.078;8.578;2022-07-23T11:30:04;30.80;78.90
12089;DHT22;6107;49.078;8.578;2022-07-23T12:02:37;30.20;78.80
12089;DHT22;6107;49.078;8.578;2022-07-23T14:16:46;29.50;72.00
12089;DHT22;6107;49.078;8.578;2022-07-23T17:48:44;32.20;50.70
12089;DHT22;6107;49.078;8.578;2022-07-23T17:53:36;28.90;63.50
12089;DHT22;6107;49.078;8.578;2022-07-23T17:56:01;28.90;65.40
12089;DHT22;6107;49.078;8.578;2022-07-23T17:58:29;28.50;67.60
12089;DHT22;6107;49.078;8.578;2022-07-23T18:00:54;28.80;66.20
12089;DHT22;6107;49.078;8.578;2022-07-23T18:03:20;28.30;66.50
12089;DHT22;6107;49.078;8.578;2022-07-23T18:05:45;28.50;66.20
12089;DHT22;6107;49.078;8.578;2022-07-23T18:08:11;28.40;67.80
12089;DHT22;6107;49.078;8.578;2022-07-23T18:10:37;28.00;70.10
12089;DHT22;6107;49.078;8.578;2022-07-23T18:13:04;27.80;69.60
12089;DHT22;6107;49.078;8.578;2022-07-23T18:15:31;27.60;70.00
12089;DHT22;6107;49.078;8.578;2022-07-23T18:17:56;27.70;72.00
12089;DHT22;6107;49.078;8.578;2022-07-23T18:20:22;27.90;71.50
12089;DHT22;6107;49.078;8.578;2022-07-23T18:22:48;28.10;70.30
12089;DHT22;6107;49.078;8.578;2022-07-23T18:25:14;27.90;71.50
12089;DHT22;6107;49.078;8.578;2022-07-23T18:27:40;27.80;73.10
12089;DHT22;6107;49.078;8.578;2022-07-23T18:30:06;27.60;72.40
12089;DHT22;6107;49.078;8.578;2022-07-23T18:32:32;27.70;72.60
12089;DHT22;6107;49.078;8.578;2022-07-23T18:34:58;27.30;73.40
12089;DHT22;6107;49.078;8.578;2022-07-23T18:37:24;27.00;74.50
12089;DHT22;6107;49.078;8.578;2022-07-23T18:39:50;26.90;76.00
12089;DHT22;6107;49.078;8.578;2022-07-23T18:42:16;26.60;76.60
12089;DHT22;6107;49.078;8.578;2022-07-23T18:44:42;26.50;77.30
12089;DHT22;6107;49.078;8.578;2022-07-23T18:47:07;26.60;76.70
12089;DHT22;6107;49.078;8.578;2022-07-23T18:49:33;26.60;76.60
12089;DHT22;6107;49.078;8.578;2022-07-23T18:52:00;26.50;77.10
12089;DHT22;6107;49.078;8.578;2022-07-23T18:54:25;26.50;77.70
12089;DHT22;6107;49.078;8.578;2022-07-23T18:56:51;26.20;81.30
12089;DHT22;6107;49.078;8.578;2022-07-23T18:59:17;26.20;81.60
12089;DHT22;6107;49.078;8.578;2022-07-23T19:01:42;26.30;80.10
12089;DHT22;6107;49.078;8.578;2022-07-23T19:04:08;26.30;80.00
12089;DHT22;6107;49.078;8.578;2022-07-23T19:06:33;25.90;81.20
12089;DHT22;6107;49.078;8.578;2022-07-23T19:08:59;25.60;82.60
12089;DHT22;6107;49.078;8.578;2022-07-23T19:11:25;25.30;84.60
12089;DHT22;6107;49.078;8.578;2022-07-23T19:13:51;25.40;84.20
12089;DHT22;6107;49.078;8.578;2022-07-23T19:16:17;25.40;84.10
12089;DHT22;6107;49.078;8.578;2022-07-23T19:18:43;25.60;82.30
12089;DHT22;6107;49.078;8.578;2022-07-23T19:21:08;25.40;83.00
12089;DHT22;6107;49.078;8.578;2022-07-23T19:23:35;25.30;82.60
12089;DHT22;6107;49.078;8.578;2022-07-23T19:26:00;25.20;83.70
12089;DHT22;6107;49.078;8.578;2022-07-23T19:28:26;25.20;84.20
12089;DHT22;6107;49.078;8.578;2022-07-23T19:30:52;25.00;83.90
12089;DHT22;6107;49.078;8.578;2022-07-23T19:33:17;25.10;83.80
12089;DHT22;6107;49.078;8.578;2022-07-23T19:35:43;25.00;84.10
12089;DHT22;6107;49.078;8.578;2022-07-23T19:38:08;25.00;85.00
12089;DHT22;6107;49.078;8.578;2022-07-23T19:40:34;24.80;86.30
12089;DHT22;6107;49.078;8.578;2022-07-23T19:43:00;24.80;87.70
12089;DHT22;6107;49.078;8.578;2022-07-23T19:45:26;24.70;88.30
12089;DHT22;6107;49.078;8.578;2022-07-23T19:47:51;24.70;87.60
12089;DHT22;6107;49.078;8.578;2022-07-23T19:50:17;24.60;87.60
12089;DHT22;6107;49.078;8.578;2022-07-23T19:52:42;24.60;88.50
12089;DHT22;6107;49.078;8.578;2022-07-23T19:55:10;24.50;89.60
12089;DHT22;6107;49.078;8.578;2022-07-23T19:57:36;24.40;90.00
12089;DHT22;6107;49.078;8.578;2022-07-23T20:00:04;24.30;90.60
12089;DHT22;6107;49.078;8.578;2022-07-23T20:02:30;24.30;90.40
12089;DHT22;6107;49.078;8.578;2022-07-23T20:04:55;24.20;90.30
12089;DHT22;6107;49.078;8.578;2022-07-23T20:07:21;24.10;90.60
12089;DHT22;6107;49.078;8.578;2022-07-23T20:09:46;23.90;90.70
12089;DHT22;6107;49.078;8.578;2022-07-23T20:12:12;23.80;90.70
12089;DHT22;6107;49.078;8.578;2022-07-23T20:17:04;23.70;91.00
12089;DHT22;6107;49.078;8.578;2022-07-23T20:19:29;23.70;91.10
12089;DHT22;6107;49.078;8.578;2022-07-23T20:21:55;24.20;90.60
12089;DHT22;6107;49.078;8.578;2022-07-23T20:24:21;24.10;90.70
12089;DHT22;6107;49.078;8.578;2022-07-23T20:26:48;23.90;91.00
12089;DHT22;6107;49.078;8.578;2022-07-23T20:29:15;23.50;91.20
12089;DHT22;6107;49.078;8.578;2022-07-23T20:31:41;23.40;91.40
12089;DHT22;6107;49.078;8.578;2022-07-23T20:34:07;23.30;91.60
12089;DHT22;6107;49.078;8.578;2022-07-23T20:36:33;23.50;91.60
12089;DHT22;6107;49.078;8.578;2022-07-23T20:38:59;23.80;91.40
12089;DHT22;6107;49.078;8.578;2022-07-23T20:41:25;24.30;90.30
12089;DHT22;6107;49.078;8.578;2022-07-23T20:43:50;24.60;89.20
12089;DHT22;6107;49.078;8.578;2022-07-23T20:46:16;24.70;88.00
12089;DHT22;6107;49.078;8.578;2022-07-23T20:48:44;24.10;89.00
12089;DHT22;6107;49.078;8.578;2022-07-23T20:51:10;23.30;91.00
12089;DHT22;6107;49.078;8.578;2022-07-23T20:53:36;23.30;91.20
12089;DHT22;6107;49.078;8.578;2022-07-23T20:56:01;22.90;91.90
12089;DHT22;6107;49.078;8.578;2022-07-23T20:58:27;22.80;92.40
12089;DHT22;6107;49.078;8.578;2022-07-23T21:00:53;23.00;92.20
12089;DHT22;6107;49.078;8.578;2022-07-23T21:03:18;23.10;92.00
12089;DHT22;6107;49.078;8.578;2022-07-23T21:05:44;23.10;91.70
12089;DHT22;6107;49.078;8.578;2022-07-23T21:08:09;23.00;92.10
12089;DHT22;6107;49.078;8.578;2022-07-23T21:10:35;22.70;92.40
12089;DHT22;6107;49.078;8.578;2022-07-23T21:13:01;22.60;92.90
12089;DHT22;6107;49.078;8.578;2022-07-23T21:15:26;22.50;93.00
12089;DHT22;6107;49.078;8.578;2022-07-23T21:17:52;22.50;93.10
12089;DHT22;6107;49.078;8.578;2022-07-23T21:20:17;22.40;93.40
12089;DHT22;6107;49.078;8.578;2022-07-23T21:22:44;22.20;93.70
12089;DHT22;6107;49.078;8.578;2022-07-23T21:25:10;22.10;94.00
12089;DHT22;6107;49.078;8.578;2022-07-23T21:27:37;22.10;93.90
12089;DHT22;6107;49.078;8.578;2022-07-23T21:30:03;22.00;94.40
12089;DHT22;6107;49.078;8.578;2022-07-23T21:32:29;21.90;94.30
12089;DHT22;6107;49.078;8.578;2022-07-23T21:34:55;21.90;94.40
12089;DHT22;6107;49.078;8.578;2022-07-23T21:37:21;21.80;94.40
12089;DHT22;6107;49.078;8.578;2022-07-23T21:39:46;21.60;95.00
12089;DHT22;6107;49.078;8.578;2022-07-23T21:42:12;21.50;95.30
12089;DHT22;6107;49.078;8.578;2022-07-23T21:44:38;21.50;95.70
12089;DHT22;6107;49.078;8.578;2022-07-23T21:47:03;21.50;95.60
12089;DHT22;6107;49.078;8.578;2022-07-23T21:49:29;21.50;96.20
12089;DHT22;6107;49.078;8.578;2022-07-23T21:51:54;21.70;95.30
12089;DHT22;6107;49.078;8.578;2022-07-23T21:54:20;21.30;95.90
12089;DHT22;6107;49.078;8.578;2022-07-23T21:56:45;21.00;96.70
12089;DHT22;6107;49.078;8.578;2022-07-23T21:59:12;20.90;97.10
12089;DHT22;6107;49.078;8.578;2022-07-23T22:01:38;20.90;97.00
12089;DHT22;6107;49.078;8.578;2022-07-23T22:04:03;20.90;97.40
12089;DHT22;6107;49.078;8.578;2022-07-23T22:06:30;20.90;97.30
12089;DHT22;6107;49.078;8.578;2022-07-23T22:08:57;20.90;97.50
12089;DHT22;6107;49.078;8.578;2022-07-23T22:11:22;20.90;97.70
12089;DHT22;6107;49.078;8.578;2022-07-23T22:13:48;20.80;98.10
12089;DHT22;6107;49.078;8.578;2022-07-23T22:16:14;20.90;98.20
12089;DHT22;6107;49.078;8.578;2022-07-23T22:18:40;20.70;98.50
12089;DHT22;6107;49.078;8.578;2022-07-23T22:21:06;20.70;98.60
12089;DHT22;6107;49.078;8.578;2022-07-23T22:23:31;20.70;98.70
12089;DHT22;6107;49.078;8.578;2022-07-23T22:25:57;20.60;99.30
12089;DHT22;6107;49.078;8.578;2022-07-23T22:28:22;20.50;99.10
12089;DHT22;6107;49.078;8.578;2022-07-23T22:30:48;20.60;99.10